<?xml version="1.0" encoding="UTF-8" standalone="no" ?>
<gpx xmlns="http://www.topografix.com/GPX/1/1" xmlns:xsi="http://www.w3.org/2001/XMLSchema-instance" xsi:schemaLocation="http://www.topografix.com/GPX/1/1 http://www.topografix.com/GPX/1/1/gpx.xsd" version="1.1" creator="VisuGPX - https://www.visugpx.com">
  <metadata>
    <name>Traces DPT 33</name>
    <desc><![CDATA[Total: 12.2km]]></desc>
  </metadata>
  <trk>
    <name><![CDATA[NewTrack]]></name>
    <desc><![CDATA[Total: 17.8km]]></desc>
    <extensions>
      <line xmlns="http://www.topografix.com/GPX/gpx_style/0/2">
        <color>888800</color>
        <width>4</width>
      </line>
    </extensions>
    <trkseg>
      <trkpt lat="44.75977" lon="-0.19675">
        <ele>54.2</ele>
        <time>2016-01-27T14:50:06Z</time>
      </trkpt>
      <trkpt lat="44.75784" lon="-0.1938">
        <ele>61.9</ele>
        <time>2016-01-27T14:51:22Z</time>
      </trkpt>
      <trkpt lat="44.7573" lon="-0.19343">
        <ele>63.5</ele>
        <time>2016-01-27T14:51:38Z</time>
      </trkpt>
      <trkpt lat="44.75774" lon="-0.19295">
        <ele>62.5</ele>
        <time>2016-01-27T14:51:53Z</time>
      </trkpt>
      <trkpt lat="44.7579" lon="-0.19105">
        <ele>63</ele>
        <time>2016-01-27T14:52:29Z</time>
      </trkpt>
      <trkpt lat="44.75789" lon="-0.18845">
        <ele>57.9</ele>
        <time>2016-01-27T14:53:19Z</time>
      </trkpt>
      <trkpt lat="44.7577" lon="-0.18645">
        <ele>55.3</ele>
        <time>2016-01-27T14:53:57Z</time>
      </trkpt>
      <trkpt lat="44.75744" lon="-0.18497">
        <ele>55.4</ele>
        <time>2016-01-27T14:54:26Z</time>
      </trkpt>
      <trkpt lat="44.75726" lon="-0.18346">
        <ele>56.7</ele>
        <time>2016-01-27T14:54:55Z</time>
      </trkpt>
      <trkpt lat="44.75673" lon="-0.18164">
        <ele>53.5</ele>
        <time>2016-01-27T14:55:33Z</time>
      </trkpt>
      <trkpt lat="44.75582" lon="-0.18129">
        <ele>56.6</ele>
        <time>2016-01-27T14:55:58Z</time>
      </trkpt>
      <trkpt lat="44.75548" lon="-0.18171">
        <ele>58.3</ele>
        <time>2016-01-27T14:56:10Z</time>
      </trkpt>
      <trkpt lat="44.75511" lon="-0.18207">
        <ele>60.4</ele>
        <time>2016-01-27T14:56:22Z</time>
      </trkpt>
      <trkpt lat="44.75525" lon="-0.18252">
        <ele>62.1</ele>
        <time>2016-01-27T14:56:31Z</time>
      </trkpt>
      <trkpt lat="44.75519" lon="-0.18388">
        <ele>64.3</ele>
        <time>2016-01-27T14:56:57Z</time>
      </trkpt>
      <trkpt lat="44.75503" lon="-0.18452">
        <ele>63.9</ele>
        <time>2016-01-27T14:57:10Z</time>
      </trkpt>
      <trkpt lat="44.75477" lon="-0.1849">
        <ele>64</ele>
        <time>2016-01-27T14:57:20Z</time>
      </trkpt>
      <trkpt lat="44.75262" lon="-0.18493">
        <ele>61.8</ele>
        <time>2016-01-27T14:58:18Z</time>
      </trkpt>
      <trkpt lat="44.75239" lon="-0.18495">
        <ele>61.4</ele>
        <time>2016-01-27T14:58:24Z</time>
      </trkpt>
      <trkpt lat="44.75221" lon="-0.18517">
        <ele>61.5</ele>
        <time>2016-01-27T14:58:30Z</time>
      </trkpt>
      <trkpt lat="44.75166" lon="-0.18623">
        <ele>62.4</ele>
        <time>2016-01-27T14:58:55Z</time>
      </trkpt>
      <trkpt lat="44.75183" lon="-0.18808">
        <ele>61.8</ele>
        <time>2016-01-27T14:59:30Z</time>
      </trkpt>
      <trkpt lat="44.75186" lon="-0.18884">
        <ele>62.3</ele>
        <time>2016-01-27T14:59:45Z</time>
      </trkpt>
      <trkpt lat="44.75171" lon="-0.18968">
        <ele>60.2</ele>
        <time>2016-01-27T15:00:01Z</time>
      </trkpt>
      <trkpt lat="44.75131" lon="-0.19034">
        <ele>56.6</ele>
        <time>2016-01-27T15:00:18Z</time>
      </trkpt>
      <trkpt lat="44.74918" lon="-0.19089">
        <ele>49.1</ele>
        <time>2016-01-27T15:01:15Z</time>
      </trkpt>
      <trkpt lat="44.74908" lon="-0.19112">
        <ele>50.3</ele>
        <time>2016-01-27T15:01:21Z</time>
      </trkpt>
      <trkpt lat="44.74898" lon="-0.19212">
        <ele>53</ele>
        <time>2016-01-27T15:01:40Z</time>
      </trkpt>
      <trkpt lat="44.74875" lon="-0.19225">
        <ele>53</ele>
        <time>2016-01-27T15:01:46Z</time>
      </trkpt>
      <trkpt lat="44.74842" lon="-0.19207">
        <ele>53.7</ele>
        <time>2016-01-27T15:01:56Z</time>
      </trkpt>
      <trkpt lat="44.74584" lon="-0.19034">
        <ele>57.2</ele>
        <time>2016-01-27T15:03:12Z</time>
      </trkpt>
      <trkpt lat="44.74443" lon="-0.18926">
        <ele>55.1</ele>
        <time>2016-01-27T15:03:55Z</time>
      </trkpt>
      <trkpt lat="44.74435" lon="-0.1877">
        <ele>54.4</ele>
        <time>2016-01-27T15:04:24Z</time>
      </trkpt>
      <trkpt lat="44.7437" lon="-0.18766">
        <ele>58.1</ele>
        <time>2016-01-27T15:04:42Z</time>
      </trkpt>
      <trkpt lat="44.74345" lon="-0.18249">
        <ele>58.6</ele>
        <time>2016-01-27T15:06:20Z</time>
      </trkpt>
      <trkpt lat="44.74312" lon="-0.17973">
        <ele>60.5</ele>
        <time>2016-01-27T15:07:13Z</time>
      </trkpt>
      <trkpt lat="44.74299" lon="-0.17882">
        <ele>63.4</ele>
        <time>2016-01-27T15:07:31Z</time>
      </trkpt>
      <trkpt lat="44.74277" lon="-0.17791">
        <ele>64</ele>
        <time>2016-01-27T15:07:49Z</time>
      </trkpt>
      <trkpt lat="44.74249" lon="-0.17558">
        <ele>55.1</ele>
        <time>2016-01-27T15:08:34Z</time>
      </trkpt>
      <trkpt lat="44.7424" lon="-0.1752">
        <ele>54.5</ele>
        <time>2016-01-27T15:08:42Z</time>
      </trkpt>
      <trkpt lat="44.74189" lon="-0.174">
        <ele>48.5</ele>
        <time>2016-01-27T15:09:08Z</time>
      </trkpt>
      <trkpt lat="44.74127" lon="-0.17271">
        <ele>42.3</ele>
        <time>2016-01-27T15:09:38Z</time>
      </trkpt>
      <trkpt lat="44.74051" lon="-0.17195">
        <ele>32.2</ele>
        <time>2016-01-27T15:10:03Z</time>
      </trkpt>
      <trkpt lat="44.73997" lon="-0.17161">
        <ele>28.4</ele>
        <time>2016-01-27T15:10:19Z</time>
      </trkpt>
      <trkpt lat="44.73928" lon="-0.17163">
        <ele>28.2</ele>
        <time>2016-01-27T15:10:37Z</time>
      </trkpt>
      <trkpt lat="44.7392" lon="-0.17152">
        <ele>27.5</ele>
        <time>2016-01-27T15:10:40Z</time>
      </trkpt>
      <trkpt lat="44.73841" lon="-0.17145">
        <ele>27</ele>
        <time>2016-01-27T15:11:01Z</time>
      </trkpt>
      <trkpt lat="44.73764" lon="-0.17132">
        <ele>28.1</ele>
        <time>2016-01-27T15:11:22Z</time>
      </trkpt>
      <trkpt lat="44.73666" lon="-0.17117">
        <ele>29.2</ele>
        <time>2016-01-27T15:11:48Z</time>
      </trkpt>
      <trkpt lat="44.73619" lon="-0.17097">
        <ele>28.9</ele>
        <time>2016-01-27T15:12:01Z</time>
      </trkpt>
      <trkpt lat="44.73578" lon="-0.17069">
        <ele>28.5</ele>
        <time>2016-01-27T15:12:14Z</time>
      </trkpt>
      <trkpt lat="44.73487" lon="-0.17041">
        <ele>29.7</ele>
        <time>2016-01-27T15:12:38Z</time>
      </trkpt>
      <trkpt lat="44.73405" lon="-0.17052">
        <ele>30.4</ele>
        <time>2016-01-27T15:13:00Z</time>
      </trkpt>
      <trkpt lat="44.73332" lon="-0.17095">
        <ele>30.4</ele>
        <time>2016-01-27T15:13:21Z</time>
      </trkpt>
      <trkpt lat="44.73272" lon="-0.17157">
        <ele>32.5</ele>
        <time>2016-01-27T15:13:41Z</time>
      </trkpt>
      <trkpt lat="44.73184" lon="-0.17317">
        <ele>36.3</ele>
        <time>2016-01-27T15:14:20Z</time>
      </trkpt>
      <trkpt lat="44.73132" lon="-0.17401">
        <ele>35.2</ele>
        <time>2016-01-27T15:14:41Z</time>
      </trkpt>
      <trkpt lat="44.73078" lon="-0.17459">
        <ele>34.8</ele>
        <time>2016-01-27T15:14:59Z</time>
      </trkpt>
      <trkpt lat="44.73007" lon="-0.17509">
        <ele>36.4</ele>
        <time>2016-01-27T15:15:20Z</time>
      </trkpt>
      <trkpt lat="44.72931" lon="-0.17516">
        <ele>36.3</ele>
        <time>2016-01-27T15:15:41Z</time>
      </trkpt>
      <trkpt lat="44.72833" lon="-0.17528">
        <ele>36</ele>
        <time>2016-01-27T15:16:07Z</time>
      </trkpt>
      <trkpt lat="44.72739" lon="-0.17562">
        <ele>39.9</ele>
        <time>2016-01-27T15:16:33Z</time>
      </trkpt>
      <trkpt lat="44.72571" lon="-0.1762">
        <ele>43.6</ele>
        <time>2016-01-27T15:17:19Z</time>
      </trkpt>
      <trkpt lat="44.72509" lon="-0.17616">
        <ele>39.2</ele>
        <time>2016-01-27T15:17:35Z</time>
      </trkpt>
      <trkpt lat="44.72452" lon="-0.17592">
        <ele>39.7</ele>
        <time>2016-01-27T15:17:51Z</time>
      </trkpt>
      <trkpt lat="44.7241" lon="-0.17566">
        <ele>44.9</ele>
        <time>2016-01-27T15:18:03Z</time>
      </trkpt>
      <trkpt lat="44.72329" lon="-0.17821">
        <ele>43.9</ele>
        <time>2016-01-27T15:18:56Z</time>
      </trkpt>
      <trkpt lat="44.72236" lon="-0.18126">
        <ele>53.5</ele>
        <time>2016-01-27T15:19:59Z</time>
      </trkpt>
      <trkpt lat="44.72072" lon="-0.18353">
        <ele>59</ele>
        <time>2016-01-27T15:21:01Z</time>
      </trkpt>
      <trkpt lat="44.71869" lon="-0.18626">
        <ele>59.6</ele>
        <time>2016-01-27T15:22:16Z</time>
      </trkpt>
      <trkpt lat="44.71769" lon="-0.18759">
        <ele>67.2</ele>
        <time>2016-01-27T15:22:53Z</time>
      </trkpt>
      <trkpt lat="44.71888" lon="-0.18791">
        <ele>59.5</ele>
        <time>2016-01-27T15:23:25Z</time>
      </trkpt>
      <trkpt lat="44.721" lon="-0.1881">
        <ele>49.5</ele>
        <time>2016-01-27T15:24:22Z</time>
      </trkpt>
      <trkpt lat="44.72197" lon="-0.18824">
        <ele>48.6</ele>
        <time>2016-01-27T15:24:48Z</time>
      </trkpt>
      <trkpt lat="44.72218" lon="-0.18838">
        <ele>48.3</ele>
        <time>2016-01-27T15:24:54Z</time>
      </trkpt>
      <trkpt lat="44.72251" lon="-0.18899">
        <ele>48.3</ele>
        <time>2016-01-27T15:25:08Z</time>
      </trkpt>
      <trkpt lat="44.72275" lon="-0.18929">
        <ele>46.3</ele>
        <time>2016-01-27T15:25:17Z</time>
      </trkpt>
      <trkpt lat="44.72315" lon="-0.18924">
        <ele>44.2</ele>
        <time>2016-01-27T15:25:28Z</time>
      </trkpt>
      <trkpt lat="44.72381" lon="-0.18918">
        <ele>45.5</ele>
        <time>2016-01-27T15:25:46Z</time>
      </trkpt>
      <trkpt lat="44.72497" lon="-0.18993">
        <ele>53.6</ele>
        <time>2016-01-27T15:26:20Z</time>
      </trkpt>
      <trkpt lat="44.72517" lon="-0.18857">
        <ele>53.3</ele>
        <time>2016-01-27T15:26:46Z</time>
      </trkpt>
      <trkpt lat="44.7257" lon="-0.18777">
        <ele>56</ele>
        <time>2016-01-27T15:27:07Z</time>
      </trkpt>
      <trkpt lat="44.72663" lon="-0.18744">
        <ele>60.5</ele>
        <time>2016-01-27T15:27:32Z</time>
      </trkpt>
      <trkpt lat="44.72761" lon="-0.18728">
        <ele>65.8</ele>
        <time>2016-01-27T15:27:59Z</time>
      </trkpt>
      <trkpt lat="44.72894" lon="-0.18739">
        <ele>72.6</ele>
        <time>2016-01-27T15:28:34Z</time>
      </trkpt>
      <trkpt lat="44.73017" lon="-0.1874">
        <ele>74.7</ele>
        <time>2016-01-27T15:29:07Z</time>
      </trkpt>
      <trkpt lat="44.73058" lon="-0.18749">
        <ele>74.2</ele>
        <time>2016-01-27T15:29:18Z</time>
      </trkpt>
      <trkpt lat="44.73183" lon="-0.18874">
        <ele>74.3</ele>
        <time>2016-01-27T15:29:59Z</time>
      </trkpt>
      <trkpt lat="44.73229" lon="-0.18909">
        <ele>74.2</ele>
        <time>2016-01-27T15:30:13Z</time>
      </trkpt>
      <trkpt lat="44.73265" lon="-0.18927">
        <ele>71.7</ele>
        <time>2016-01-27T15:30:23Z</time>
      </trkpt>
      <trkpt lat="44.73304" lon="-0.18931">
        <ele>68.6</ele>
        <time>2016-01-27T15:30:34Z</time>
      </trkpt>
      <trkpt lat="44.73344" lon="-0.18907">
        <ele>65.3</ele>
        <time>2016-01-27T15:30:45Z</time>
      </trkpt>
      <trkpt lat="44.73508" lon="-0.18759">
        <ele>48.1</ele>
        <time>2016-01-27T15:31:37Z</time>
      </trkpt>
      <trkpt lat="44.73594" lon="-0.18738">
        <ele>52.2</ele>
        <time>2016-01-27T15:32:01Z</time>
      </trkpt>
      <trkpt lat="44.73639" lon="-0.18698">
        <ele>55.8</ele>
        <time>2016-01-27T15:32:15Z</time>
      </trkpt>
      <trkpt lat="44.73719" lon="-0.18624">
        <ele>59.9</ele>
        <time>2016-01-27T15:32:40Z</time>
      </trkpt>
      <trkpt lat="44.73815" lon="-0.18576">
        <ele>66.2</ele>
        <time>2016-01-27T15:33:07Z</time>
      </trkpt>
      <trkpt lat="44.73889" lon="-0.18536">
        <ele>70</ele>
        <time>2016-01-27T15:33:29Z</time>
      </trkpt>
      <trkpt lat="44.74027" lon="-0.19032">
        <ele>66</ele>
        <time>2016-01-27T15:35:10Z</time>
      </trkpt>
      <trkpt lat="44.74088" lon="-0.19366">
        <ele>67.4</ele>
        <time>2016-01-27T15:36:15Z</time>
      </trkpt>
      <trkpt lat="44.74236" lon="-0.19239">
        <ele>71.9</ele>
        <time>2016-01-27T15:37:01Z</time>
      </trkpt>
      <trkpt lat="44.74375" lon="-0.19642">
        <ele>72</ele>
        <time>2016-01-27T15:38:27Z</time>
      </trkpt>
      <trkpt lat="44.74455" lon="-0.19897">
        <ele>72.1</ele>
        <time>2016-01-27T15:39:19Z</time>
      </trkpt>
      <trkpt lat="44.74532" lon="-0.20123">
        <ele>78.4</ele>
        <time>2016-01-27T15:40:07Z</time>
      </trkpt>
      <trkpt lat="44.74594" lon="-0.20254">
        <ele>79.3</ele>
        <time>2016-01-27T15:40:37Z</time>
      </trkpt>
      <trkpt lat="44.74189" lon="-0.20637">
        <ele>72</ele>
        <time>2016-01-27T15:42:47Z</time>
      </trkpt>
      <trkpt lat="44.74137" lon="-0.20726">
        <ele>74.1</ele>
        <time>2016-01-27T15:43:09Z</time>
      </trkpt>
      <trkpt lat="44.74024" lon="-0.2096">
        <ele>77</ele>
        <time>2016-01-27T15:44:03Z</time>
      </trkpt>
      <trkpt lat="44.7384" lon="-0.21046">
        <ele>79</ele>
        <time>2016-01-27T15:44:55Z</time>
      </trkpt>
      <trkpt lat="44.73885" lon="-0.21202">
        <ele>77.1</ele>
        <time>2016-01-27T15:45:27Z</time>
      </trkpt>
      <trkpt lat="44.7389" lon="-0.21355">
        <ele>74.2</ele>
        <time>2016-01-27T15:45:56Z</time>
      </trkpt>
      <trkpt lat="44.73901" lon="-0.21505">
        <ele>71.6</ele>
        <time>2016-01-27T15:46:25Z</time>
      </trkpt>
      <trkpt lat="44.73924" lon="-0.21655">
        <ele>68.3</ele>
        <time>2016-01-27T15:46:54Z</time>
      </trkpt>
      <trkpt lat="44.73986" lon="-0.21659">
        <ele>67</ele>
        <time>2016-01-27T15:47:10Z</time>
      </trkpt>
      <trkpt lat="44.74044" lon="-0.2172">
        <ele>66.4</ele>
        <time>2016-01-27T15:47:30Z</time>
      </trkpt>
      <trkpt lat="44.74194" lon="-0.2165">
        <ele>71</ele>
        <time>2016-01-27T15:48:12Z</time>
      </trkpt>
      <trkpt lat="44.74346" lon="-0.2161">
        <ele>65.5</ele>
        <time>2016-01-27T15:48:53Z</time>
      </trkpt>
      <trkpt lat="44.74518" lon="-0.21608">
        <ele>63.1</ele>
        <time>2016-01-27T15:49:39Z</time>
      </trkpt>
      <trkpt lat="44.74648" lon="-0.21657">
        <ele>65.2</ele>
        <time>2016-01-27T15:50:15Z</time>
      </trkpt>
      <trkpt lat="44.74727" lon="-0.21649">
        <ele>67.4</ele>
        <time>2016-01-27T15:50:36Z</time>
      </trkpt>
      <trkpt lat="44.74806" lon="-0.21692">
        <ele>68</ele>
        <time>2016-01-27T15:50:58Z</time>
      </trkpt>
      <trkpt lat="44.74854" lon="-0.21699">
        <ele>67.2</ele>
        <time>2016-01-27T15:51:11Z</time>
      </trkpt>
      <trkpt lat="44.74931" lon="-0.21651">
        <ele>63.3</ele>
        <time>2016-01-27T15:51:34Z</time>
      </trkpt>
      <trkpt lat="44.75073" lon="-0.21559">
        <ele>55.8</ele>
        <time>2016-01-27T15:52:16Z</time>
      </trkpt>
      <trkpt lat="44.7524" lon="-0.21285">
        <ele>62.6</ele>
        <time>2016-01-27T15:53:24Z</time>
      </trkpt>
      <trkpt lat="44.75123" lon="-0.21488">
        <ele>56</ele>
        <time>2016-01-27T15:54:13Z</time>
      </trkpt>
      <trkpt lat="44.75434" lon="-0.21011">
        <ele>64.2</ele>
        <time>2016-01-27T15:56:16Z</time>
      </trkpt>
      <trkpt lat="44.75527" lon="-0.20887">
        <ele>60.1</ele>
        <time>2016-01-27T15:56:50Z</time>
      </trkpt>
      <trkpt lat="44.75628" lon="-0.20644">
        <ele>61.8</ele>
        <time>2016-01-27T15:57:44Z</time>
      </trkpt>
      <trkpt lat="44.75739" lon="-0.20338">
        <ele>56.4</ele>
        <time>2016-01-27T15:58:49Z</time>
      </trkpt>
      <trkpt lat="44.75748" lon="-0.20104">
        <ele>58.9</ele>
        <time>2016-01-27T15:59:34Z</time>
      </trkpt>
      <trkpt lat="44.75769" lon="-0.19984">
        <ele>62.2</ele>
        <time>2016-01-27T15:59:57Z</time>
      </trkpt>
      <trkpt lat="44.75836" lon="-0.19842">
        <ele>59.7</ele>
        <time>2016-01-27T16:00:30Z</time>
      </trkpt>
      <trkpt lat="44.75978" lon="-0.19675">
        <ele>54.2</ele>
        <time>2016-01-27T16:01:19Z</time>
      </trkpt>
    </trkseg>
  </trk>
</gpx>